Time;durP1;ratioP1;P1;durP2;ratioP2;P2;SDS_P1;SDS_P2;PMS_P1;PMS_P2;Temp;Humidity;BMP_temperature;BMP_pressure;BME280_temperature;BME280_humidity;BME280_pressure;Samples;Min_cycle;Max_cycle;Signal;HPM_P1;HPM_P2
2023/05/06 00:00:31;;;;;;;9.70;3.70;;;11.80;99.90;;;;;;4971278;28;20023;-83
2023/05/06 00:02:59;;;;;;;4.50;3.35;;;11.80;99.90;;;;;;4972143;28;20030;-83
2023/05/06 00:05:24;;;;;;;5.32;3.70;;;11.80;99.90;;;;;;4971862;28;20045;-83
2023/05/06 00:07:50;;;;;;;6.07;3.65;;;11.80;99.90;;;;;;4971869;28;20022;-83
2023/05/06 00:10:16;;;;;;;5.28;3.65;;;11.80;99.90;;;;;;4971001;28;20105;-83
2023/05/06 00:12:41;;;;;;;6.55;3.90;;;11.80;99.90;;;;;;4970954;28;20456;-82
2023/05/06 00:15:07;;;;;;;10.43;4.07;;;11.80;99.90;;;;;;4971507;28;20030;-83
2023/05/06 00:17:33;;;;;;;6.25;4.05;;;11.80;99.90;;;;;;4971370;28;21095;-84
2023/05/06 00:19:58;;;;;;;6.05;3.75;;;11.80;99.90;;;;;;4967518;28;20034;-83
2023/05/06 00:22:24;;;;;;;8.45;4.03;;;11.80;99.90;;;;;;4969737;28;20129;-83
2023/05/06 00:24:49;;;;;;;8.05;4.00;;;11.80;99.90;;;;;;4969406;28;20061;-83
2023/05/06 00:27:15;;;;;;;6.63;3.97;;;11.80;99.90;;;;;;4968726;28;20137;-83
2023/05/06 00:29:41;;;;;;;7.22;4.32;;;11.80;99.90;;;;;;4969022;28;20458;-83
2023/05/06 00:32:06;;;;;;;6.32;4.00;;;11.80;99.90;;;;;;4966897;28;20039;-83
2023/05/06 00:34:32;;;;;;;6.50;3.80;;;11.80;99.90;;;;;;4967253;28;20102;-83
2023/05/06 00:36:57;;;;;;;5.75;3.92;;;11.70;99.90;;;;;;4967714;28;20035;-83
2023/05/06 00:39:23;;;;;;;7.82;4.28;;;11.70;99.90;;;;;;4966720;28;20035;-83
2023/05/06 00:41:49;;;;;;;6.55;3.65;;;11.70;99.90;;;;;;4969192;28;20031;-83
2023/05/06 00:44:15;;;;;;;6.07;3.70;;;11.70;99.90;;;;;;4971131;28;20078;-83
2023/05/06 00:46:42;;;;;;;5.90;3.95;;;11.60;99.90;;;;;;4971112;28;20035;-83
2023/05/06 00:49:08;;;;;;;6.73;4.00;;;11.60;99.90;;;;;;4970600;28;20065;-83
2023/05/06 00:51:34;;;;;;;8.73;3.90;;;11.50;99.90;;;;;;4971127;28;20070;-83
2023/05/06 00:54:00;;;;;;;6.17;3.90;;;11.50;99.90;;;;;;4971188;28;20495;-83
2023/05/06 00:56:26;;;;;;;5.20;3.87;;;11.50;99.90;;;;;;4972076;28;20045;-83
2023/05/06 00:58:53;;;;;;;7.30;4.17;;;11.40;99.90;;;;;;4972191;28;20030;-83
2023/05/06 01:01:21;;;;;;;6.38;4.10;;;11.40;99.90;;;;;;4970187;28;20113;-83
2023/05/06 01:03:47;;;;;;;8.45;4.53;;;11.30;99.90;;;;;;4970462;28;20061;-82
2023/05/06 01:06:26;;;;;;;6.07;4.07;;;11.30;99.90;;;;;;4971543;28;20134;-84
2023/05/06 01:09:16;;;;;;;4.38;3.80;;;11.30;99.90;;;;;;4970959;28;20094;-83
2023/05/06 01:12:05;;;;;;;5.30;3.60;;;11.20;99.90;;;;;;4969555;28;20038;-84
2023/05/06 01:15:32;;;;;;;4.95;3.78;;;11.20;99.90;;;;;;4970373;28;20113;-83
2023/05/06 01:18:01;;;;;;;5.45;4.57;;;11.10;99.90;;;;;;4891193;29;20037;-83
2023/05/06 01:20:30;;;;;;;5.65;4.50;;;11.10;99.90;;;;;;4890368;29;20555;-83
2023/05/06 01:22:56;;;;;;;7.03;3.90;;;11.00;99.90;;;;;;4943484;28;20057;-83
2023/05/06 01:25:22;;;;;;;6.00;4.35;;;11.00;99.90;;;;;;4969364;28;20058;-83
2023/05/06 01:27:48;;;;;;;7.53;4.57;;;11.00;99.90;;;;;;4970172;28;20031;-83
2023/05/06 01:30:16;;;;;;;8.23;4.55;;;11.00;99.90;;;;;;4968777;28;20049;-83
2023/05/06 01:33:06;;;;;;;8.13;4.43;;;11.00;99.90;;;;;;4969803;28;20046;-83
2023/05/06 01:35:38;;;;;;;6.07;4.22;;;11.00;99.90;;;;;;4969353;28;20034;-83
2023/05/06 01:38:27;;;;;;;6.03;4.40;;;11.00;99.90;;;;;;4969438;28;20053;-83
2023/05/06 01:40:55;;;;;;;7.95;4.47;;;11.00;99.90;;;;;;4968592;28;20117;-82
2023/05/06 01:43:24;;;;;;;7.85;4.63;;;11.00;99.90;;;;;;4969376;28;20043;-83
2023/05/06 01:45:52;;;;;;;4.68;4.20;;;11.00;99.90;;;;;;4970391;28;20022;-83
2023/05/06 01:48:25;;;;;;;7.85;4.95;;;11.00;99.90;;;;;;4951598;28;20403;-83
2023/05/06 01:50:51;;;;;;;9.73;5.20;;;11.00;99.90;;;;;;4968600;28;20054;-82
2023/05/06 01:53:16;;;;;;;5.35;4.40;;;11.00;99.90;;;;;;4967501;28;20070;-83
2023/05/06 01:55:42;;;;;;;6.83;5.00;;;11.00;99.90;;;;;;4970600;28;20046;-83
2023/05/06 01:58:07;;;;;;;8.20;5.30;;;11.00;99.90;;;;;;4969527;28;20041;-83
2023/05/06 02:00:33;;;;;;;6.18;5.03;;;11.00;99.90;;;;;;4948861;28;20443;-83
2023/05/06 02:02:59;;;;;;;6.60;4.80;;;11.00;99.90;;;;;;4968936;28;20034;-83
2023/05/06 02:05:25;;;;;;;7.43;4.80;;;11.00;99.90;;;;;;4968942;28;20030;-83
2023/05/06 02:07:50;;;;;;;8.02;5.05;;;11.00;99.90;;;;;;4968904;28;20507;-83
2023/05/06 02:10:16;;;;;;;6.90;5.20;;;11.00;99.90;;;;;;4969007;28;20042;-83
2023/05/06 02:12:41;;;;;;;5.82;4.95;;;11.00;99.90;;;;;;4970525;28;20468;-83
2023/05/06 02:15:08;;;;;;;6.63;5.07;;;11.00;99.90;;;;;;4968897;28;21454;-83
2023/05/06 02:17:35;;;;;;;7.43;4.87;;;11.00;99.90;;;;;;4969086;28;20038;-83
2023/05/06 02:20:00;;;;;;;5.80;4.70;;;10.90;99.90;;;;;;4966462;28;20034;-83
2023/05/06 02:22:26;;;;;;;5.20;4.43;;;10.90;99.90;;;;;;4968418;28;20038;-83
2023/05/06 02:24:51;;;;;;;5.20;4.70;;;10.90;99.90;;;;;;4968972;28;20027;-83
2023/05/06 02:27:17;;;;;;;6.60;4.50;;;10.90;99.90;;;;;;4968558;28;20045;-83
2023/05/06 02:29:43;;;;;;;6.40;4.80;;;11.00;99.90;;;;;;4968228;28;20118;-83
2023/05/06 02:32:08;;;;;;;7.43;4.90;;;10.90;99.90;;;;;;4969689;28;20034;-83
2023/05/06 02:34:34;;;;;;;7.88;5.00;;;10.90;99.90;;;;;;4969898;28;20052;-83
2023/05/06 02:37:02;;;;;;;6.57;4.93;;;10.90;99.90;;;;;;4970576;28;20015;-83
2023/05/06 02:39:27;;;;;;;6.97;5.40;;;11.00;99.90;;;;;;4968807;28;20042;-83
2023/05/06 02:41:53;;;;;;;5.90;5.17;;;11.00;99.90;;;;;;4969601;28;20614;-83
2023/05/06 02:44:19;;;;;;;6.23;5.33;;;10.90;99.90;;;;;;4951829;28;20106;-83
2023/05/06 02:46:44;;;;;;;5.87;5.13;;;11.00;99.90;;;;;;4968043;28;20030;-83
2023/05/06 02:49:10;;;;;;;10.57;5.50;;;11.00;99.90;;;;;;4968640;28;20066;-83
2023/05/06 02:51:35;;;;;;;8.20;5.90;;;11.00;99.90;;;;;;4968579;28;20105;-83
2023/05/06 02:54:01;;;;;;;7.18;5.68;;;11.00;99.90;;;;;;4968411;28;20129;-83
2023/05/06 02:56:26;;;;;;;7.63;5.63;;;11.00;99.90;;;;;;4968938;28;20031;-83
2023/05/06 02:58:52;;;;;;;8.10;5.35;;;11.10;99.90;;;;;;4968335;28;20031;-83
2023/05/06 03:01:18;;;;;;;7.30;5.43;;;11.10;99.90;;;;;;4966871;28;20035;-83
2023/05/06 03:03:43;;;;;;;7.00;5.40;;;11.10;99.90;;;;;;4950122;28;20399;-83
2023/05/06 03:06:09;;;;;;;6.50;5.43;;;11.10;99.90;;;;;;4968554;28;20034;-83
2023/05/06 03:08:35;;;;;;;6.78;5.07;;;11.10;99.90;;;;;;4968502;28;20027;-82
2023/05/06 03:11:00;;;;;;;8.35;5.30;;;11.10;99.90;;;;;;4967393;28;20039;-82
2023/05/06 03:13:26;;;;;;;8.93;5.40;;;11.00;99.90;;;;;;4968073;28;20130;-83
2023/05/06 03:15:55;;;;;;;6.18;5.28;;;11.00;99.90;;;;;;4968630;28;20031;-83
2023/05/06 03:18:21;;;;;;;5.97;5.20;;;11.00;99.90;;;;;;4967420;28;20073;-83
2023/05/06 03:20:49;;;;;;;7.10;5.60;;;11.00;99.90;;;;;;4966707;28;20062;-82
2023/05/06 03:23:15;;;;;;;8.20;5.97;;;11.00;99.90;;;;;;4968320;28;20121;-83
2023/05/06 03:25:41;;;;;;;7.60;5.57;;;11.00;99.90;;;;;;4968542;28;20082;-83
2023/05/06 03:28:06;;;;;;;8.68;5.85;;;11.00;99.90;;;;;;4968748;28;20042;-83
2023/05/06 03:30:32;;;;;;;9.00;5.95;;;11.00;99.90;;;;;;4968130;28;20039;-83
2023/05/06 03:33:00;;;;;;;6.93;5.88;;;10.90;99.90;;;;;;4951073;28;20061;-83
2023/05/06 03:35:25;;;;;;;8.40;6.27;;;10.90;99.90;;;;;;4968315;28;20264;-83
2023/05/06 03:37:51;;;;;;;9.18;6.22;;;10.80;99.90;;;;;;4969203;28;21315;-83
2023/05/06 03:40:17;;;;;;;9.10;6.68;;;10.80;99.90;;;;;;4967918;28;20117;-83
2023/05/06 03:42:43;;;;;;;8.48;6.38;;;10.80;99.90;;;;;;4968656;28;20050;-83
2023/05/06 03:45:09;;;;;;;9.45;6.35;;;10.80;99.90;;;;;;4969276;28;20094;-83
2023/05/06 03:47:35;;;;;;;9.07;6.72;;;10.70;99.90;;;;;;4970822;28;20101;-83
2023/05/06 03:50:00;;;;;;;10.57;6.70;;;10.70;99.90;;;;;;4970114;28;20918;-83
2023/05/06 03:52:26;;;;;;;8.30;7.00;;;10.70;99.90;;;;;;4969062;28;20548;-83
2023/05/06 03:54:51;;;;;;;7.97;6.43;;;10.70;99.90;;;;;;4969215;28;20026;-83
2023/05/06 03:57:17;;;;;;;8.25;6.60;;;10.70;99.90;;;;;;4968118;28;20031;-83
2023/05/06 03:59:43;;;;;;;7.07;5.90;;;10.70;99.90;;;;;;4966828;28;20031;-83
2023/05/06 04:02:08;;;;;;;9.27;6.90;;;10.60;99.90;;;;;;4966920;28;20061;-83
2023/05/06 04:04:34;;;;;;;9.63;7.20;;;10.60;99.90;;;;;;4967676;28;20027;-82
2023/05/06 04:06:59;;;;;;;9.60;6.43;;;10.60;99.90;;;;;;4967065;28;20138;-83
2023/05/06 04:09:25;;;;;;;7.47;6.57;;;10.60;99.90;;;;;;4966225;28;20034;-83
2023/05/06 04:11:51;;;;;;;11.00;7.10;;;10.60;99.90;;;;;;4966637;28;20031;-83
2023/05/06 04:14:16;;;;;;;12.17;6.63;;;10.60;99.90;;;;;;4966393;28;20502;-84
2023/05/06 04:16:42;;;;;;;7.43;6.03;;;10.60;99.90;;;;;;4965908;28;20034;-83
2023/05/06 04:19:07;;;;;;;6.60;5.73;;;10.60;99.90;;;;;;4964267;28;20038;-83
2023/05/06 04:21:33;;;;;;;7.03;5.87;;;10.60;99.90;;;;;;4963236;28;20027;-83
2023/05/06 04:23:59;;;;;;;9.05;6.50;;;10.50;99.90;;;;;;4963613;28;20102;-83
2023/05/06 04:26:24;;;;;;;7.15;6.18;;;10.50;99.90;;;;;;4962483;28;20043;-83
2023/05/06 04:28:50;;;;;;;6.90;6.20;;;10.50;99.90;;;;;;4970081;28;20070;-83
2023/05/06 04:31:16;;;;;;;9.17;6.73;;;10.50;99.90;;;;;;4971263;28;20557;-83
2023/05/06 04:33:41;;;;;;;13.48;6.80;;;10.60;99.90;;;;;;4970694;28;20086;-83
2023/05/06 04:36:07;;;;;;;11.47;6.90;;;10.60;99.90;;;;;;4969475;28;20492;-83
2023/05/06 04:38:34;;;;;;;7.77;6.97;;;10.60;99.90;;;;;;4970266;28;20038;-83
2023/05/06 04:41:00;;;;;;;9.50;6.67;;;10.60;99.90;;;;;;4969868;28;20045;-83
2023/05/06 04:43:28;;;;;;;9.00;6.28;;;10.70;99.90;;;;;;4971434;28;20050;-83
2023/05/06 04:45:54;;;;;;;12.53;7.03;;;10.80;99.90;;;;;;4972224;28;20027;-83
2023/05/06 04:48:21;;;;;;;8.05;6.30;;;10.80;99.90;;;;;;4952630;28;20050;-83
2023/05/06 04:50:47;;;;;;;8.20;6.47;;;10.80;99.90;;;;;;4970892;28;20045;-83
2023/05/06 04:53:13;;;;;;;8.80;6.10;;;10.90;99.90;;;;;;4969939;28;20039;-83
2023/05/06 04:55:39;;;;;;;7.17;6.40;;;11.00;99.90;;;;;;4971330;28;20906;-83
2023/05/06 04:58:04;;;;;;;8.03;5.80;;;11.00;99.90;;;;;;4969601;28;20038;-83
2023/05/06 05:00:30;;;;;;;8.70;6.73;;;11.10;99.90;;;;;;4969869;28;20039;-83
2023/05/06 05:02:55;;;;;;;10.27;7.40;;;11.20;99.90;;;;;;4970163;28;20048;-83
2023/05/06 05:05:21;;;;;;;9.20;6.60;;;11.20;99.90;;;;;;4970511;28;21319;-83
2023/05/06 05:07:46;;;;;;;8.00;6.88;;;11.30;99.90;;;;;;4971585;28;20037;-83
2023/05/06 05:10:12;;;;;;;6.97;6.18;;;11.40;99.90;;;;;;4969414;28;20035;-83
2023/05/06 05:12:38;;;;;;;9.35;6.65;;;11.40;99.90;;;;;;4970416;28;20043;-83
2023/05/06 05:15:03;;;;;;;8.27;6.55;;;11.50;99.90;;;;;;4969386;28;20031;-83
2023/05/06 05:17:29;;;;;;;9.43;6.47;;;11.60;99.90;;;;;;4968688;28;20115;-83
2023/05/06 05:19:55;;;;;;;9.00;6.43;;;11.80;99.90;;;;;;4967506;28;20038;-83
2023/05/06 05:22:20;;;;;;;14.02;7.65;;;11.80;99.90;;;;;;4967863;28;20042;-82
2023/05/06 05:24:46;;;;;;;7.82;7.00;;;11.90;99.90;;;;;;4969091;28;20059;-83
2023/05/06 05:27:11;;;;;;;7.72;6.20;;;12.00;99.90;;;;;;4967402;28;20039;-83
2023/05/06 05:29:37;;;;;;;7.10;5.68;;;12.00;99.90;;;;;;4967131;28;20050;-83
2023/05/06 05:32:03;;;;;;;7.82;5.60;;;12.10;99.90;;;;;;4966762;28;20041;-83
2023/05/06 05:34:29;;;;;;;8.32;5.38;;;12.10;99.90;;;;;;4967477;28;20031;-84
2023/05/06 05:36:56;;;;;;;9.02;4.72;;;12.10;99.90;;;;;;4967532;28;20031;-85
2023/05/06 05:39:22;;;;;;;8.40;5.38;;;12.20;99.90;;;;;;4964802;28;20097;-83
2023/05/06 05:41:47;;;;;;;7.07;5.47;;;12.20;99.90;;;;;;4966241;28;20479;-84
2023/05/06 05:44:13;;;;;;;6.25;5.63;;;12.30;99.90;;;;;;4966504;28;20041;-84
2023/05/06 05:46:39;;;;;;;7.53;5.90;;;12.30;99.90;;;;;;4946456;28;20043;-84
2023/05/06 05:49:05;;;;;;;9.00;5.35;;;12.40;99.90;;;;;;4964922;28;20018;-84
2023/05/06 05:51:31;;;;;;;7.50;5.07;;;12.50;99.90;;;;;;4965523;28;20033;-84
2023/05/06 05:53:57;;;;;;;6.50;5.55;;;12.60;99.90;;;;;;4966098;28;20039;-83
2023/05/06 05:56:22;;;;;;;7.57;4.75;;;12.50;99.90;;;;;;4966322;28;20023;-84
2023/05/06 05:58:48;;;;;;;5.55;4.70;;;12.60;99.90;;;;;;4964687;28;20042;-84
2023/05/06 06:01:14;;;;;;;5.85;4.68;;;12.60;99.90;;;;;;4964914;28;20023;-84
2023/05/06 06:03:40;;;;;;;5.95;4.88;;;12.70;99.90;;;;;;4964494;28;20037;-83
2023/05/06 06:06:05;;;;;;;9.02;4.78;;;12.70;99.90;;;;;;4966264;28;20046;-84
2023/05/06 06:08:32;;;;;;;8.00;4.78;;;12.70;99.90;;;;;;4963910;28;20035;-84
2023/05/06 06:10:57;;;;;;;10.98;4.95;;;12.70;99.90;;;;;;4965018;28;20042;-85
2023/05/06 06:13:23;;;;;;;5.93;4.97;;;12.80;99.90;;;;;;4966795;28;20043;-84
2023/05/06 06:15:49;;;;;;;5.70;4.60;;;12.80;99.90;;;;;;4965666;28;20035;-85
2023/05/06 06:18:14;;;;;;;9.13;5.82;;;12.90;99.90;;;;;;4964192;28;20432;-77
2023/05/06 06:20:40;;;;;;;9.45;4.85;;;12.90;99.90;;;;;;4961955;28;20030;-84
2023/05/06 06:23:05;;;;;;;6.65;4.85;;;13.00;99.90;;;;;;4963037;28;20035;-75
2023/05/06 06:25:31;;;;;;;8.60;5.30;;;13.10;99.90;;;;;;4962917;28;20018;-75
2023/05/06 06:27:57;;;;;;;6.80;5.97;;;13.20;99.90;;;;;;4961177;28;20030;-76
2023/05/06 06:30:22;;;;;;;7.80;6.25;;;13.20;99.90;;;;;;4961054;28;20148;-76
2023/05/06 06:32:52;;;;;;;9.32;7.15;;;13.30;99.90;;;;;;4960224;28;20088;-76
2023/05/06 06:35:22;;;;;;;8.57;6.53;;;13.20;99.90;;;;;;4956961;28;20165;-76
2023/05/06 06:37:48;;;;;;;10.98;6.63;;;13.30;99.90;;;;;;4959493;28;20408;-77
2023/05/06 06:40:14;;;;;;;9.43;6.57;;;13.30;99.90;;;;;;4958645;28;20035;-78
2023/05/06 06:42:40;;;;;;;7.75;6.68;;;13.30;99.90;;;;;;4961282;28;20043;-78
2023/05/06 06:45:07;;;;;;;9.55;6.38;;;13.30;99.90;;;;;;4961692;28;20765;-78
2023/05/06 06:47:33;;;;;;;9.88;6.90;;;13.40;99.90;;;;;;4959408;28;20149;-77
2023/05/06 06:49:59;;;;;;;9.35;6.75;;;13.40;99.90;;;;;;4959745;28;20031;-78
2023/05/06 06:52:24;;;;;;;10.27;6.80;;;13.40;99.90;;;;;;4960053;28;20043;-78
2023/05/06 06:54:50;;;;;;;9.98;7.30;;;13.60;99.90;;;;;;4961712;28;20031;-78
2023/05/06 06:57:15;;;;;;;9.52;6.95;;;13.60;99.90;;;;;;4960866;28;20511;-78
2023/05/06 06:59:41;;;;;;;9.15;7.47;;;13.70;99.90;;;;;;4956056;28;20035;-77
2023/05/06 07:02:07;;;;;;;10.50;7.63;;;13.80;99.90;;;;;;4958781;28;20043;-77
2023/05/06 07:04:32;;;;;;;10.45;7.25;;;13.90;99.90;;;;;;4958502;28;20403;-77
2023/05/06 07:06:58;;;;;;;9.32;6.80;;;14.00;99.90;;;;;;4958289;28;21472;-77
2023/05/06 07:09:23;;;;;;;9.52;7.03;;;14.10;99.90;;;;;;4957477;28;20403;-77
2023/05/06 07:11:49;;;;;;;9.57;7.32;;;14.30;99.90;;;;;;4957786;28;20097;-77
2023/05/06 07:14:15;;;;;;;8.65;6.78;;;14.40;99.90;;;;;;4959417;28;20062;-77
2023/05/06 07:16:42;;;;;;;8.60;6.53;;;14.40;99.90;;;;;;4962046;28;20697;-80
2023/05/06 07:19:08;;;;;;;8.73;6.60;;;14.50;99.90;;;;;;4963432;28;20040;-77
2023/05/06 07:21:33;;;;;;;9.77;6.85;;;14.60;99.90;;;;;;4962139;28;20030;-76
2023/05/06 07:23:59;;;;;;;12.00;6.80;;;14.70;99.90;;;;;;4961535;28;20065;-78
2023/05/06 07:26:25;;;;;;;7.32;5.95;;;14.80;99.90;;;;;;4963928;28;20385;-77
2023/05/06 07:28:51;;;;;;;14.55;6.13;;;14.90;99.90;;;;;;4961383;28;20045;-77
2023/05/06 07:31:19;;;;;;;8.70;6.50;;;15.00;99.90;;;;;;4962372;28;20071;-78
2023/05/06 07:33:46;;;;;;;7.22;5.60;;;15.00;99.90;;;;;;4968907;28;20032;-80
2023/05/06 07:36:12;;;;;;;10.20;6.65;;;15.20;99.90;;;;;;4969444;28;20087;-86
2023/05/06 07:38:37;;;;;;;7.00;5.13;;;15.30;99.90;;;;;;4969953;28;20466;-87
2023/05/06 07:41:03;;;;;;;7.03;5.18;;;15.50;99.90;;;;;;4968948;28;20043;-87
2023/05/06 07:43:28;;;;;;;6.85;5.18;;;15.60;99.90;;;;;;4971462;28;20035;-86
2023/05/06 07:46:01;;;;;;;7.35;5.45;;;15.80;99.90;;;;;;4972216;28;20486;-85
2023/05/06 07:48:30;;;;;;;6.63;4.65;;;15.90;99.90;;;;;;4970503;28;21539;-85
2023/05/06 07:50:56;;;;;;;5.95;4.50;;;16.00;99.90;;;;;;4970598;28;20046;-88
2023/05/06 07:53:22;;;;;;;6.70;4.90;;;16.00;99.90;;;;;;4970446;28;20050;-85
2023/05/06 07:55:48;;;;;;;6.22;4.72;;;16.00;99.90;;;;;;4969897;28;20023;-84
2023/05/06 07:58:14;;;;;;;7.65;5.07;;;16.10;99.90;;;;;;4970853;28;20031;-85
2023/05/06 08:00:39;;;;;;;7.70;4.70;;;16.00;99.90;;;;;;4968701;28;20031;-85
2023/05/06 08:03:05;;;;;;;6.93;5.05;;;16.00;99.90;;;;;;4971263;28;20062;-86
2023/05/06 08:05:31;;;;;;;10.68;4.90;;;16.00;99.90;;;;;;4964598;28;20027;-75
2023/05/06 08:07:56;;;;;;;7.85;4.88;;;16.00;99.90;;;;;;4963807;28;20399;-74
2023/05/06 08:10:22;;;;;;;9.85;5.38;;;16.10;99.90;;;;;;4961565;28;21465;-74
2023/05/06 08:12:47;;;;;;;7.43;5.45;;;16.20;99.90;;;;;;4963181;28;20046;-73
2023/05/06 08:15:13;;;;;;;7.55;5.03;;;16.30;99.90;;;;;;4963773;28;20022;-73
2023/05/06 08:17:39;;;;;;;9.00;5.30;;;16.30;99.90;;;;;;4964169;28;20058;-73
2023/05/06 08:20:06;;;;;;;11.30;5.10;;;16.40;99.90;;;;;;4961530;28;20467;-73
2023/05/06 08:22:31;;;;;;;7.55;5.65;;;16.50;99.90;;;;;;4962753;28;20042;-73
2023/05/06 08:24:57;;;;;;;8.23;5.55;;;16.60;99.90;;;;;;4961160;28;20403;-73
2023/05/06 08:27:23;;;;;;;7.13;5.65;;;16.70;99.90;;;;;;4963306;28;20058;-73
2023/05/06 08:29:48;;;;;;;9.93;5.72;;;16.70;99.90;;;;;;4963042;28;20034;-73
2023/05/06 08:32:14;;;;;;;7.60;4.75;;;16.70;99.90;;;;;;4963297;28;20034;-73
2023/05/06 08:34:40;;;;;;;6.75;4.78;;;16.70;99.90;;;;;;4963467;28;20471;-73
2023/05/06 08:37:05;;;;;;;6.72;4.70;;;16.70;99.90;;;;;;4963604;28;20098;-73
2023/05/06 08:39:31;;;;;;;7.32;5.00;;;16.80;99.90;;;;;;4963040;28;20046;-73
2023/05/06 08:42:00;;;;;;;7.63;4.50;;;16.90;99.90;;;;;;4963074;28;20073;-73
2023/05/06 08:44:26;;;;;;;4.60;3.65;;;17.00;99.90;;;;;;4960840;28;20089;-73
2023/05/06 08:46:52;;;;;;;9.48;4.22;;;17.10;99.90;;;;;;4963198;28;20027;-73
2023/05/06 08:49:17;;;;;;;6.97;3.72;;;17.10;99.90;;;;;;4963775;28;20126;-74
2023/05/06 08:51:44;;;;;;;5.43;4.40;;;17.10;99.90;;;;;;4962714;28;20034;-75
2023/05/06 08:54:11;;;;;;;6.05;3.70;;;17.20;99.90;;;;;;4963730;28;20129;-75
2023/05/06 08:56:41;;;;;;;6.15;3.80;;;17.10;99.90;;;;;;4961950;28;21033;-73
2023/05/06 08:59:08;;;;;;;12.07;3.72;;;17.20;99.90;;;;;;4963047;28;20023;-73
2023/05/06 09:01:34;;;;;;;13.10;3.35;;;17.30;99.90;;;;;;4962040;28;20031;-75
2023/05/06 09:04:02;;;;;;;7.28;4.45;;;17.30;99.90;;;;;;4962969;28;20026;-74
2023/05/06 09:06:28;;;;;;;5.78;3.70;;;17.50;99.90;;;;;;4963602;28;20031;-77
2023/05/06 09:08:54;;;;;;;7.68;3.60;;;17.50;99.90;;;;;;4962941;28;20452;-75
2023/05/06 09:11:25;;;;;;;4.93;3.22;;;17.60;99.90;;;;;;4961647;28;20035;-74
2023/05/06 09:14:06;;;;;;;7.78;3.40;;;17.70;99.90;;;;;;4961619;28;20558;-75
2023/05/06 09:16:31;;;;;;;4.20;2.92;;;17.70;99.90;;;;;;4962843;28;20042;-74
2023/05/06 09:18:58;;;;;;;4.57;3.30;;;17.70;99.90;;;;;;4962363;28;20030;-74
2023/05/06 09:21:39;;;;;;;4.45;2.90;;;17.70;99.90;;;;;;4961882;28;20074;-74
2023/05/06 09:24:06;;;;;;;6.88;3.28;;;17.60;99.90;;;;;;4962675;28;20041;-75
2023/05/06 09:26:33;;;;;;;3.83;2.67;;;17.50;99.90;;;;;;4962796;28;20085;-74
2023/05/06 09:29:00;;;;;;;3.80;2.85;;;17.30;99.90;;;;;;4963171;28;20026;-74
2023/05/06 09:31:27;;;;;;;6.13;3.33;;;17.20;99.90;;;;;;4943848;28;20051;-74
2023/05/06 09:33:54;;;;;;;6.03;3.30;;;17.10;99.90;;;;;;4962662;28;20555;-74
2023/05/06 09:36:20;;;;;;;4.07;3.05;;;17.10;99.90;;;;;;4961522;28;20133;-73
2023/05/06 09:38:46;;;;;;;6.15;3.55;;;17.20;99.90;;;;;;4961572;28;20760;-74
2023/05/06 09:41:12;;;;;;;8.93;4.65;;;17.30;99.90;;;;;;4961084;28;20070;-73
2023/05/06 09:43:43;;;;;;;5.45;4.10;;;17.40;99.90;;;;;;4962200;28;20027;-73
2023/05/06 09:46:12;;;;;;;5.97;4.10;;;17.60;99.90;;;;;;4962840;28;20046;-74
2023/05/06 09:48:39;;;;;;;4.43;4.00;;;17.80;99.90;;;;;;4962329;28;20113;-74
2023/05/06 09:51:06;;;;;;;4.68;4.18;;;17.70;99.90;;;;;;4961174;28;20027;-74
2023/05/06 09:53:36;;;;;;;5.03;4.03;;;17.70;99.90;;;;;;4961650;28;20044;-74
2023/05/06 09:56:06;;;;;;;6.45;3.92;;;17.80;99.90;;;;;;4961164;28;20515;-78
2023/05/06 09:58:32;;;;;;;5.53;3.78;;;17.80;99.90;;;;;;4960309;28;20463;-75
2023/05/06 10:00:59;;;;;;;5.35;3.80;;;18.10;99.90;;;;;;4960227;28;20058;-75
2023/05/06 10:03:25;;;;;;;4.75;3.38;;;18.30;99.90;;;;;;4962347;28;20074;-75
2023/05/06 10:05:53;;;;;;;6.55;3.70;;;18.70;99.90;;;;;;4962354;28;20038;-75
2023/05/06 10:08:20;;;;;;;5.38;3.08;;;19.00;99.90;;;;;;4962024;28;20427;-75
2023/05/06 10:10:48;;;;;;;5.53;2.95;;;19.00;99.90;;;;;;4961144;28;20441;-75
2023/05/06 10:13:14;;;;;;;5.13;2.80;;;19.10;99.90;;;;;;4960509;28;20055;-75
2023/05/06 10:15:44;;;;;;;6.53;2.95;;;19.20;99.90;;;;;;4962713;28;20045;-80
2023/05/06 10:18:10;;;;;;;4.03;2.85;;;19.20;99.90;;;;;;4959522;28;20038;-74
2023/05/06 10:20:39;;;;;;;3.35;2.83;;;19.30;99.90;;;;;;4961101;28;20048;-76
2023/05/06 10:23:12;;;;;;;4.72;3.13;;;19.40;99.90;;;;;;4961526;28;20027;-75
2023/05/06 10:25:42;;;;;;;3.78;2.70;;;19.80;99.90;;;;;;4961340;28;20853;-76
2023/05/06 10:28:09;;;;;;;4.85;2.60;;;20.00;99.90;;;;;;4961825;28;20748;-76
2023/05/06 10:30:36;;;;;;;5.15;2.40;;;20.40;99.90;;;;;;4962139;28;20178;-76
2023/05/06 10:33:05;;;;;;;4.28;2.33;;;20.70;99.90;;;;;;4961094;28;20035;-76
2023/05/06 10:35:40;;;;;;;5.03;2.20;;;21.10;99.90;;;;;;4961858;28;20051;-75
2023/05/06 10:38:38;;;;;;;4.65;1.98;;;21.40;99.90;;;;;;4962789;28;20038;-77
2023/05/06 10:41:07;;;;;;;4.45;2.50;;;21.30;99.90;;;;;;4956953;28;20077;-76
2023/05/06 10:43:33;;;;;;;5.47;2.50;;;21.10;99.90;;;;;;4960474;28;20089;-74
2023/05/06 10:46:00;;;;;;;4.05;2.28;;;21.00;99.90;;;;;;4961549;28;20118;-75
2023/05/06 10:48:26;;;;;;;3.65;2.13;;;21.10;99.90;;;;;;4961623;28;20511;-74
2023/05/06 10:51:14;;;;;;;3.40;2.22;;;20.90;99.90;;;;;;4960290;28;20032;-74
2023/05/06 10:54:01;;;;;;;4.40;1.95;;;20.90;99.90;;;;;;4961475;28;20392;-74
2023/05/06 10:56:27;;;;;;;4.45;2.10;;;21.10;99.90;;;;;;4961488;28;20037;-72
2023/05/06 10:58:54;;;;;;;4.82;2.03;;;21.40;99.90;;;;;;4961244;28;20047;-72
2023/05/06 11:01:21;;;;;;;5.28;2.25;;;21.70;99.90;;;;;;4959793;28;20402;-72
2023/05/06 11:03:49;;;;;;;4.75;1.90;;;21.60;99.90;;;;;;4961027;28;20039;-72
2023/05/06 11:06:31;;;;;;;5.15;2.30;;;21.20;99.90;;;;;;4961054;28;20026;-72
2023/05/06 11:08:59;;;;;;;4.60;2.08;;;20.90;99.90;;;;;;4960725;28;20041;-73
2023/05/06 11:12:02;;;;;;;3.55;2.40;;;20.60;99.90;;;;;;4960361;28;20526;-71
2023/05/06 11:14:34;;;;;;;5.15;2.05;;;20.30;99.90;;;;;;4960613;28;20054;-72
2023/05/06 11:17:01;;;;;;;3.47;1.98;;;20.30;99.90;;;;;;4960236;28;20046;-71
2023/05/06 11:19:29;;;;;;;5.93;2.10;;;20.60;99.90;;;;;;4958324;28;20038;-72
2023/05/06 11:21:57;;;;;;;4.03;2.00;;;20.90;99.90;;;;;;4958226;28;20121;-72
2023/05/06 11:24:42;;;;;;;4.78;2.15;;;21.00;99.90;;;;;;4959258;28;20488;-74
2023/05/06 11:27:09;;;;;;;2.67;2.00;;;21.50;99.90;;;;;;4960282;28;20042;-75
2023/05/06 11:29:35;;;;;;;5.70;2.47;;;21.90;99.90;;;;;;4959696;28;20045;-75
2023/05/06 11:32:02;;;;;;;3.42;2.22;;;22.00;99.90;;;;;;4961164;28;20049;-76
2023/05/06 11:34:30;;;;;;;4.13;2.10;;;21.90;99.90;;;;;;4962590;28;20097;-79
2023/05/06 11:37:04;;;;;;;3.80;1.80;;;22.00;99.90;;;;;;4963168;28;20089;-77
2023/05/06 11:39:31;;;;;;;3.35;1.70;;;21.90;99.90;;;;;;4964889;28;20034;-77
2023/05/06 11:41:58;;;;;;;3.97;1.55;;;22.10;99.90;;;;;;4968682;28;20027;-79
2023/05/06 11:44:26;;;;;;;3.25;1.60;;;22.20;99.90;;;;;;4971538;28;20038;-80
2023/05/06 11:46:56;;;;;;;2.05;1.60;;;22.40;99.90;;;;;;4968766;28;20030;-80
2023/05/06 11:49:21;;;;;;;3.70;1.85;;;22.50;99.90;;;;;;4968096;28;20165;-80
2023/05/06 11:51:48;;;;;;;1.83;1.40;;;22.60;99.90;;;;;;4968768;28;20109;-80
2023/05/06 11:54:17;;;;;;;3.38;1.65;;;22.90;99.90;;;;;;4968922;28;20043;-79
2023/05/06 11:56:55;;;;;;;3.83;1.52;;;23.20;99.90;;;;;;4969386;28;20034;-78
2023/05/06 11:59:30;;;;;;;3.83;1.38;;;23.30;99.90;;;;;;4968295;28;20045;-81
2023/05/06 12:01:58;;;;;;;2.65;1.70;;;23.60;99.90;;;;;;4969114;28;20083;-80
2023/05/06 12:04:23;;;;;;;2.58;1.80;;;23.80;99.90;;;;;;4952006;28;20026;-80
2023/05/06 12:06:49;;;;;;;3.65;1.75;;;24.10;99.90;;;;;;4967838;28;20038;-80
2023/05/06 12:09:15;;;;;;;3.92;2.00;;;24.10;99.90;;;;;;4965792;28;20031;-80
2023/05/06 12:11:42;;;;;;;3.22;1.63;;;24.10;99.90;;;;;;4965180;28;20030;-80
2023/05/06 12:14:09;;;;;;;4.47;1.67;;;23.70;99.90;;;;;;4968191;28;20043;-80
2023/05/06 12:16:35;;;;;;;3.67;1.40;;;23.20;99.90;;;;;;4968560;28;20035;-84
2023/05/06 12:19:02;;;;;;;3.20;1.50;;;22.80;99.90;;;;;;4968647;28;21292;-81
2023/05/06 12:21:29;;;;;;;4.00;2.00;;;22.60;99.90;;;;;;4979328;28;20031;-80
2023/05/06 12:23:58;;;;;;;3.38;1.85;;;22.20;99.90;;;;;;4976496;28;20042;-80
2023/05/06 12:26:26;;;;;;;1.83;1.30;;;22.20;99.90;;;;;;4974810;28;20049;-82
2023/05/06 12:29:24;;;;;;;1.90;1.40;;;22.60;99.90;;;;;;4974876;28;20037;-87
2023/05/06 12:32:09;;;;;;;2.78;1.50;;;23.20;99.90;;;;;;4925999;28;20049;-79
2023/05/06 12:34:39;;;;;;;2.42;1.40;;;23.70;99.90;;;;;;4976595;28;20030;-80
2023/05/06 12:37:05;;;;;;;3.38;1.80;;;23.90;99.90;;;;;;4975592;28;20058;-79
2023/05/06 12:39:35;;;;;;;2.28;1.77;;;24.00;99.90;;;;;;4970117;28;20039;-79
2023/05/06 12:42:01;;;;;;;3.60;1.60;;;24.10;99.90;;;;;;4970407;28;20205;-79
2023/05/06 12:44:33;;;;;;;5.40;1.80;;;24.00;99.90;;;;;;4972179;28;20329;-80
2023/05/06 12:47:00;;;;;;;5.00;1.90;;;23.90;99.90;;;;;;4968612;28;21479;-80